Time;durP1;ratioP1;P1;durP2;ratioP2;P2;SDS_P1;SDS_P2;PMS_P1;PMS_P2;Temp;Humidity;BMP_temperature;BMP_pressure;BME280_temperature;BME280_humidity;BME280_pressure;Samples;Min_cycle;Max_cycle;Signal;HPM_P1;HPM_P2
2023/05/05 00:01:08;;;;;;;11.15;4.85;;;;;;;16.43;57.87;99947.59;4892438;28;20286;-86
2023/05/05 00:03:37;;;;;;;8.48;5.20;;;;;;;16.40;57.89;99957.81;4935860;28;20053;-86
2023/05/05 00:06:06;;;;;;;11.07;4.90;;;;;;;16.38;57.78;99949.94;4920164;28;20059;-87
2023/05/05 00:08:36;;;;;;;8.68;5.28;;;;;;;16.36;57.95;99951.97;4904601;28;20054;-87
2023/05/05 00:11:03;;;;;;;7.93;5.25;;;;;;;16.41;57.95;99948.75;4903724;28;20099;-87
2023/05/05 00:13:30;;;;;;;6.95;4.47;;;;;;;16.41;56.75;99941.59;4920298;28;20406;-86
2023/05/05 00:15:59;;;;;;;7.53;5.15;;;;;;;16.39;57.06;99945.44;4889850;28;20054;-87
2023/05/05 00:18:29;;;;;;;9.23;5.43;;;;;;;16.40;57.14;99944.44;4894635;28;20171;-88
2023/05/05 00:20:59;;;;;;;8.10;4.82;;;;;;;16.41;56.57;99938.91;4904868;28;20055;-87
2023/05/05 00:23:30;;;;;;;9.00;5.28;;;;;;;16.37;56.78;99932.19;4910813;28;20053;-87
2023/05/05 00:25:57;;;;;;;9.93;5.22;;;;;;;16.37;57.64;99942.09;4921228;28;20146;-86
2023/05/05 00:28:27;;;;;;;9.13;4.88;;;;;;;16.28;58.14;99939.44;4904874;28;20137;-86
2023/05/05 00:30:57;;;;;;;8.40;4.57;;;;;;;16.28;57.88;99938.56;4904443;28;20035;-86
2023/05/05 00:33:27;;;;;;;9.45;4.85;;;;;;;16.32;57.69;99942.59;4920644;28;20362;-87
2023/05/05 00:35:59;;;;;;;5.82;4.78;;;;;;;16.24;58.83;99946.13;4837161;29;20071;-87
2023/05/05 00:38:31;;;;;;;7.70;4.60;;;;;;;16.19;59.05;99945.81;4899168;28;20556;-86
2023/05/05 00:41:03;;;;;;;;;;;;;;;15.82;60.52;99951.66;4928877;28;20615;-86
2023/05/05 00:43:31;;;;;;;7.75;4.72;;;;;;;16.19;59.34;99950.31;4901702;28;20617;-86
2023/05/05 00:46:03;;;;;;;10.10;4.90;;;;;;;16.14;59.51;99950.00;4887268;28;20067;-87
2023/05/05 00:48:31;;;;;;;6.00;4.97;;;;;;;16.19;59.36;99943.13;4913094;28;20055;-87
2023/05/05 00:50:58;;;;;;;10.43;5.18;;;;;;;16.17;59.42;99947.81;4919924;28;20051;-86
2023/05/05 00:53:41;;;;;;;9.10;4.75;;;;;;;16.17;59.14;99941.63;4906830;28;20048;-86
2023/05/05 00:56:16;;;;;;;9.75;5.70;;;;;;;16.01;60.52;99940.63;4894847;28;20134;-86
2023/05/05 00:58:47;;;;;;;10.85;5.57;;;;;;;16.13;59.69;99934.91;4910746;28;20063;-87
2023/05/05 01:01:18;;;;;;;7.35;4.93;;;;;;;16.10;59.86;99943.28;4896740;28;20055;-87
2023/05/05 01:03:48;;;;;;;10.70;5.13;;;;;;;16.05;60.01;99938.44;4915303;28;20450;-87
2023/05/05 01:06:34;;;;;;;8.23;4.90;;;;;;;15.93;60.51;99946.00;4911867;28;20058;-86
2023/05/05 01:09:32;;;;;;;6.53;4.90;;;;;;;15.81;61.03;99948.16;4911497;28;20050;-87
2023/05/05 01:12:14;;;;;;;10.98;5.10;;;;;;;15.87;60.69;99943.13;4918646;28;20055;-87
2023/05/05 01:14:46;;;;;;;6.18;4.70;;;;;;;15.96;60.19;99940.28;4917276;28;20296;-86
2023/05/05 01:17:22;;;;;;;7.07;4.80;;;;;;;15.87;60.47;99933.25;4897362;28;20398;-87
2023/05/05 01:20:04;;;;;;;6.60;4.82;;;;;;;15.87;60.85;99937.78;4889642;28;20118;-87
2023/05/05 01:22:41;;;;;;;8.43;5.38;;;;;;;15.84;60.27;99930.91;4891804;28;20074;-86
2023/05/05 01:25:37;;;;;;;8.00;5.10;;;;;;;15.78;60.63;99931.59;4894664;28;20063;-87
2023/05/05 01:28:03;;;;;;;8.38;5.20;;;;;;;15.83;60.82;99927.41;4927907;28;20063;-87
2023/05/05 01:31:07;;;;;;;9.50;5.38;;;;;;;15.67;61.73;99930.03;4902944;28;20055;-86
2023/05/05 01:33:45;;;;;;;10.43;5.25;;;;;;;15.82;61.20;99924.88;4904768;28;20052;-86
2023/05/05 01:36:21;;;;;;;11.27;5.43;;;;;;;15.79;61.39;99923.38;4883751;28;20504;-87
2023/05/05 01:38:54;;;;;;;8.32;4.68;;;;;;;15.83;61.12;99926.59;4903559;28;20047;-87
2023/05/05 01:41:27;;;;;;;12.13;5.35;;;;;;;15.68;61.75;99926.38;4920886;28;20082;-86
2023/05/05 01:43:56;;;;;;;8.10;4.97;;;;;;;15.76;61.42;99921.03;4921309;28;20047;-87
2023/05/05 01:46:26;;;;;;;9.93;5.63;;;;;;;15.67;61.51;99916.66;4935819;28;20142;-86
2023/05/05 01:48:53;;;;;;;10.52;5.00;;;;;;;15.73;61.24;99912.53;4894491;28;20089;-87
2023/05/05 01:51:23;;;;;;;6.93;5.15;;;;;;;15.73;61.17;99907.16;4905144;28;20072;-86
2023/05/05 01:53:51;;;;;;;9.73;5.35;;;;;;;15.68;61.37;99912.16;4936481;28;20908;-86
2023/05/05 01:56:19;;;;;;;7.45;5.20;;;;;;;15.70;61.27;99913.69;4917165;28;20512;-86
2023/05/05 01:58:47;;;;;;;8.27;5.30;;;;;;;15.70;60.54;99913.69;4920962;28;20540;-86
2023/05/05 02:01:18;;;;;;;10.60;5.18;;;;;;;15.75;60.25;99921.22;4919445;28;20047;-86
2023/05/05 02:03:46;;;;;;;6.78;5.00;;;;;;;15.68;60.63;99926.38;4909783;28;20044;-86
2023/05/05 02:06:13;;;;;;;8.02;5.05;;;;;;;15.63;61.11;99924.19;4913304;28;20048;-87
2023/05/05 02:08:41;;;;;;;7.70;5.40;;;;;;;15.64;60.86;99925.84;4918398;28;20139;-86
2023/05/05 02:11:08;;;;;;;8.82;5.78;;;;;;;15.64;60.91;99936.56;4934584;28;20051;-87
2023/05/05 02:13:37;;;;;;;9.88;5.55;;;;;;;15.51;61.72;99933.53;4903275;28;20071;-86
2023/05/05 02:16:05;;;;;;;8.25;5.03;;;;;;;15.53;61.76;99933.38;4915020;28;20488;-86
2023/05/05 02:18:34;;;;;;;9.35;5.07;;;;;;;15.56;61.50;99930.38;4902871;28;20059;-86
2023/05/05 02:21:02;;;;;;;12.18;5.25;;;;;;;15.60;61.29;99937.06;4919122;28;20070;-86
2023/05/05 02:23:29;;;;;;;9.27;5.78;;;;;;;15.55;61.75;99932.22;4917760;28;20130;-87
2023/05/05 02:25:59;;;;;;;7.53;5.32;;;;;;;15.46;62.38;99938.53;4906383;28;20052;-86
2023/05/05 02:28:34;;;;;;;7.85;5.25;;;;;;;15.37;62.26;99939.56;4933226;28;20043;-86
2023/05/05 02:31:01;;;;;;;9.30;5.47;;;;;;;15.48;61.69;99946.44;4918028;28;20059;-87
2023/05/05 02:33:32;;;;;;;8.20;5.57;;;;;;;15.49;61.10;99937.38;4932489;28;20534;-86
2023/05/05 02:36:10;;;;;;;7.05;5.47;;;;;;;15.36;62.44;99951.25;4902969;28;20055;-86
2023/05/05 02:38:48;;;;;;;7.93;5.45;;;;;;;15.43;62.21;99954.09;4868088;28;20048;-86
2023/05/05 02:41:17;;;;;;;8.35;5.55;;;;;;;15.40;62.98;99957.94;4934462;28;20055;-87
2023/05/05 02:43:45;;;;;;;7.28;5.00;;;;;;;15.43;63.08;99956.78;4902274;28;20051;-86
2023/05/05 02:46:12;;;;;;;13.80;6.72;;;;;;;15.38;63.68;99960.78;4924940;28;20048;-86
2023/05/05 02:48:42;;;;;;;8.07;5.00;;;;;;;15.41;63.99;99960.44;4914596;28;20606;-87
2023/05/05 02:51:09;;;;;;;10.95;5.90;;;;;;;15.39;64.71;99969.63;4873303;28;20058;-86
2023/05/05 02:53:37;;;;;;;11.73;5.93;;;;;;;15.43;64.36;99960.28;4909341;28;20054;-86
2023/05/05 02:56:19;;;;;;;11.95;5.38;;;;;;;15.24;65.73;99958.75;4935536;28;20075;-87
2023/05/05 02:58:53;;;;;;;9.63;5.68;;;;;;;15.35;64.79;99962.94;4917012;28;20040;-86
2023/05/05 03:01:53;;;;;;;11.65;6.03;;;;;;;15.25;64.82;99959.59;4903733;28;20469;-87
2023/05/05 03:04:35;;;;;;;11.43;5.70;;;;;;;15.31;64.75;99970.44;4920476;28;20055;-86
2023/05/05 03:07:28;;;;;;;7.43;5.10;;;;;;;15.17;65.53;99965.75;4901656;28;20150;-86
2023/05/05 03:10:09;;;;;;;8.98;6.60;;;;;;;15.22;65.55;99967.94;4858080;28;20142;-87
2023/05/05 03:12:54;;;;;;;8.75;5.93;;;;;;;15.15;65.28;99968.56;4915668;28;20338;-87
2023/05/05 03:15:45;;;;;;;9.68;5.35;;;;;;;15.24;65.20;99964.09;4861403;28;20110;-86
2023/05/05 03:18:20;;;;;;;7.65;5.13;;;;;;;15.29;64.54;99956.44;4908651;28;20385;-86
2023/05/05 03:20:57;;;;;;;10.02;5.80;;;;;;;15.31;64.42;99954.41;4895316;28;20524;-86
2023/05/05 03:23:34;;;;;;;14.45;5.43;;;;;;;15.32;64.91;99955.25;4861252;29;20066;-86
2023/05/05 03:26:17;;;;;;;8.90;5.43;;;;;;;15.32;64.53;99960.59;4863687;28;20054;-87
2023/05/05 03:28:50;;;;;;;7.32;5.28;;;;;;;15.41;63.81;99956.94;4829124;28;20611;-88
2023/05/05 03:31:27;;;;;;;9.52;5.40;;;;;;;15.34;64.37;99966.59;4906805;28;20066;-87
2023/05/05 03:33:57;;;;;;;8.98;6.03;;;;;;;15.37;63.85;99974.34;4905183;28;20465;-86
2023/05/05 03:36:28;;;;;;;9.20;5.55;;;;;;;15.40;63.90;99964.13;4911571;28;20457;-87
2023/05/05 03:38:57;;;;;;;8.20;5.72;;;;;;;15.37;64.10;99967.13;4918550;28;20457;-87
2023/05/05 03:41:27;;;;;;;9.50;5.85;;;;;;;15.33;64.14;99964.94;4883630;28;20047;-86
2023/05/05 03:43:54;;;;;;;9.98;5.80;;;;;;;15.40;63.43;99956.09;4935764;28;20059;-87
2023/05/05 03:46:21;;;;;;;9.25;5.93;;;;;;;15.41;63.59;99962.28;4917009;28;20048;-87
2023/05/05 03:48:48;;;;;;;9.35;5.93;;;;;;;15.43;63.05;99956.78;4906591;28;20055;-87
2023/05/05 03:51:15;;;;;;;11.13;5.60;;;;;;;15.33;63.57;99962.28;4934319;28;20066;-88
2023/05/05 03:53:45;;;;;;;7.80;5.57;;;;;;;15.29;63.65;99947.53;4917955;28;20051;-87
2023/05/05 03:56:12;;;;;;;9.20;6.10;;;;;;;15.35;63.63;99961.09;4900549;28;20043;-87
2023/05/05 03:58:40;;;;;;;12.50;5.30;;;;;;;15.23;63.85;99961.56;4886218;28;20062;-87
2023/05/05 04:01:07;;;;;;;8.00;5.60;;;;;;;15.24;64.68;99963.25;4903960;28;20517;-87
2023/05/05 04:03:34;;;;;;;10.57;6.10;;;;;;;15.24;64.30;99956.06;4866278;29;20062;-87
2023/05/05 04:06:01;;;;;;;10.25;6.18;;;;;;;15.30;64.21;99963.44;4884749;28;20071;-87
2023/05/05 04:08:32;;;;;;;10.63;6.70;;;;;;;15.34;63.59;99969.28;4902899;28;20052;-87
2023/05/05 04:11:01;;;;;;;11.98;6.72;;;;;;;15.29;63.53;99955.56;4880048;28;20048;-87
2023/05/05 04:13:29;;;;;;;10.38;6.53;;;;;;;15.32;63.74;99968.63;4892113;28;20047;-87
2023/05/05 04:15:58;;;;;;;12.13;7.00;;;;;;;15.33;63.84;99973.81;4899802;28;20055;-87
2023/05/05 04:18:28;;;;;;;13.98;6.55;;;;;;;15.37;64.04;99971.66;4886663;28;20115;-87
2023/05/05 04:20:55;;;;;;;12.68;7.18;;;;;;;15.34;64.32;99971.97;4911128;28;20449;-87
2023/05/05 04:23:22;;;;;;;9.68;6.00;;;;;;;15.27;64.98;99974.47;4921647;28;20059;-87
2023/05/05 04:25:49;;;;;;;8.88;5.95;;;;;;;15.26;65.30;99980.81;4906807;28;20047;-87
2023/05/05 04:28:17;;;;;;;9.30;6.07;;;;;;;15.21;65.74;99983.13;4923583;28;20046;-87
2023/05/05 04:30:47;;;;;;;13.25;6.20;;;;;;;15.34;65.42;99982.66;4939625;28;20050;-87
2023/05/05 04:33:14;;;;;;;15.18;7.35;;;;;;;15.40;64.75;99982.03;4904666;28;20056;-87
2023/05/05 04:35:41;;;;;;;10.20;6.75;;;;;;;15.47;64.28;99982.19;4907172;28;20319;-87
2023/05/05 04:38:08;;;;;;;10.43;6.47;;;;;;;15.55;63.57;99993.78;4906798;28;20470;-87
2023/05/05 04:40:42;;;;;;;13.93;7.20;;;;;;;15.52;63.46;99983.41;4937295;28;20099;-87
2023/05/05 04:43:10;;;;;;;10.10;6.47;;;;;;;15.65;63.19;99988.28;4888665;28;20051;-87
2023/05/05 04:45:37;;;;;;;10.32;6.80;;;;;;;15.57;63.29;99993.59;4910758;28;20071;-87
2023/05/05 04:48:04;;;;;;;11.90;6.72;;;;;;;15.59;63.14;99994.28;4897143;28;20095;-87
2023/05/05 04:50:32;;;;;;;12.40;7.32;;;;;;;15.53;63.16;99986.91;4915072;28;20055;-88
2023/05/05 04:52:59;;;;;;;10.73;6.95;;;;;;;15.54;63.31;99991.25;4907109;28;20062;-87
2023/05/05 04:55:27;;;;;;;10.18;6.50;;;;;;;15.58;63.17;100000.63;4906644;28;20142;-88
2023/05/05 04:57:54;;;;;;;10.70;6.93;;;;;;;15.55;63.19;99991.09;4923371;28;20040;-87
2023/05/05 05:00:24;;;;;;;9.90;7.18;;;;;;;15.60;63.13;99987.94;4937909;28;20051;-87
2023/05/05 05:02:53;;;;;;;15.70;6.30;;;;;;;15.55;62.91;99992.94;4937821;28;20169;-87
2023/05/05 05:05:20;;;;;;;10.27;6.75;;;;;;;15.58;62.83;99992.59;4920557;28;20066;-88
2023/05/05 05:07:47;;;;;;;10.20;6.80;;;;;;;15.54;62.92;99992.09;4939539;28;20063;-87
2023/05/05 05:10:14;;;;;;;10.88;6.85;;;;;;;15.60;62.93;99991.44;4938158;28;20055;-86
2023/05/05 05:12:41;;;;;;;13.38;6.90;;;;;;;15.55;63.23;99995.63;4939928;28;20048;-87
2023/05/05 05:15:09;;;;;;;11.05;7.00;;;;;;;15.57;63.06;100002.47;4938233;28;20055;-87
2023/05/05 05:17:36;;;;;;;13.55;7.20;;;;;;;15.60;63.10;100004.00;4902766;28;20402;-87
2023/05/05 05:20:07;;;;;;;17.15;7.10;;;;;;;15.66;62.95;100003.31;4917006;28;20127;-88
2023/05/05 05:22:37;;;;;;;17.17;7.72;;;;;;;15.74;62.81;100005.22;4925047;28;20071;-87
2023/05/05 05:25:07;;;;;;;12.90;7.53;;;;;;;15.76;63.16;100004.03;4903565;28;20386;-88
2023/05/05 05:27:35;;;;;;;11.57;6.85;;;;;;;15.76;63.29;100006.72;4921885;28;20044;-87
2023/05/05 05:30:03;;;;;;;19.10;7.60;;;;;;;15.84;63.02;100013.94;4906362;28;20135;-88
2023/05/05 05:32:31;;;;;;;16.15;7.00;;;;;;;15.76;62.98;100017.44;4920613;28;20059;-87
2023/05/05 05:34:58;;;;;;;11.35;7.32;;;;;;;15.89;62.97;100013.44;4936049;28;20043;-87
2023/05/05 05:37:29;;;;;;;12.07;7.60;;;;;;;15.85;62.98;100012.94;4907829;28;20056;-87
2023/05/05 05:39:57;;;;;;;18.73;8.25;;;;;;;15.93;62.77;100015.63;4906896;28;20303;-87
2023/05/05 05:42:27;;;;;;;13.63;7.70;;;;;;;15.95;63.07;100010.94;4936695;28;20092;-87
2023/05/05 05:44:54;;;;;;;16.90;8.30;;;;;;;16.09;62.84;100014.78;4920693;28;20058;-87
2023/05/05 05:47:20;;;;;;;17.52;7.47;;;;;;;16.26;62.34;100010.28;4923811;28;20044;-88
2023/05/05 05:49:50;;;;;;;19.83;9.25;;;;;;;16.22;61.99;100007.06;4910228;28;20119;-87
2023/05/05 05:52:18;;;;;;;16.95;9.75;;;;;;;16.31;61.75;100013.28;4893854;28;20059;-87
2023/05/05 05:54:45;;;;;;;17.60;9.68;;;;;;;16.26;62.17;100011.09;4899592;28;20128;-87
2023/05/05 05:57:12;;;;;;;18.52;10.05;;;;;;;16.28;62.23;100005.56;4921281;28;20058;-87
2023/05/05 05:59:39;;;;;;;14.57;9.55;;;;;;;16.31;62.18;100010.59;4902498;28;20056;-88
2023/05/05 06:02:07;;;;;;;27.30;10.02;;;;;;;16.40;62.23;100022.16;4933988;28;20048;-88
2023/05/05 06:04:34;;;;;;;15.52;9.40;;;;;;;16.29;62.74;100015.28;4892911;28;20075;-88
2023/05/05 06:07:01;;;;;;;21.10;10.07;;;;;;;16.22;62.81;100025.84;4908068;28;20469;-87
2023/05/05 06:09:28;;;;;;;21.83;9.35;;;;;;;16.20;62.59;100025.16;4922471;28;20056;-88
2023/05/05 06:11:55;;;;;;;17.63;9.25;;;;;;;16.21;62.57;100026.84;4934815;28;20062;-87
2023/05/05 06:14:22;;;;;;;15.95;9.60;;;;;;;16.21;62.82;100028.69;4938906;28;20461;-87
2023/05/05 06:16:51;;;;;;;16.42;9.35;;;;;;;16.21;62.95;100023.34;4913882;28;20055;-88
2023/05/05 06:19:25;;;;;;;15.68;9.60;;;;;;;16.39;63.00;100029.34;4903591;28;20454;-87
2023/05/05 06:21:53;;;;;;;20.17;10.65;;;;;;;16.53;62.82;100027.00;4921774;28;20047;-88
2023/05/05 06:24:20;;;;;;;17.48;10.27;;;;;;;16.62;62.81;100018.78;4911503;28;20047;-88
2023/05/05 06:26:47;;;;;;;17.95;9.07;;;;;;;16.64;62.98;100018.63;4891587;28;20139;-87
2023/05/05 06:29:14;;;;;;;21.13;9.88;;;;;;;16.77;62.24;100016.22;4918934;28;20044;-88
2023/05/05 06:31:40;;;;;;;15.25;8.52;;;;;;;16.92;62.15;100025.28;4935476;28;20054;-88
2023/05/05 06:34:08;;;;;;;16.45;9.35;;;;;;;16.91;61.71;100034.31;4906485;28;20469;-87
2023/05/05 06:36:34;;;;;;;17.90;10.13;;;;;;;16.91;61.69;100034.31;4919117;28;20047;-88
2023/05/05 06:39:01;;;;;;;17.05;9.75;;;;;;;16.82;61.94;100024.63;4908332;28;20058;-87
2023/05/05 06:41:28;;;;;;;20.17;9.75;;;;;;;16.82;62.12;100027.31;4920313;28;20523;-87
2023/05/05 06:43:55;;;;;;;25.42;10.10;;;;;;;16.82;62.10;100032.69;4916740;28;20047;-87
2023/05/05 06:46:21;;;;;;;19.38;9.30;;;;;;;16.79;62.32;100033.03;4917219;28;20130;-87
2023/05/05 06:48:49;;;;;;;18.77;9.40;;;;;;;16.80;62.33;100032.00;4921960;28;20055;-87
2023/05/05 06:51:15;;;;;;;22.45;10.45;;;;;;;16.83;62.62;100030.81;4935851;28;20051;-88
2023/05/05 06:53:42;;;;;;;20.45;10.77;;;;;;;16.85;62.37;100028.81;4892791;28;20051;-87
2023/05/05 06:56:10;;;;;;;21.15;9.93;;;;;;;16.90;62.00;100031.81;4919563;28;20040;-87
2023/05/05 06:58:37;;;;;;;15.77;9.32;;;;;;;16.93;61.77;100028.78;4918259;28;20134;-87
2023/05/05 07:01:03;;;;;;;22.25;9.18;;;;;;;17.05;62.04;100035.47;4933540;28;20047;-87
2023/05/05 07:03:30;;;;;;;16.30;9.32;;;;;;;17.12;61.74;100038.25;4907419;28;20051;-87
2023/05/05 07:05:57;;;;;;;20.88;9.20;;;;;;;17.18;62.29;100031.41;4923484;28;20055;-87
2023/05/05 07:08:24;;;;;;;19.08;10.02;;;;;;;17.25;62.09;100030.53;4905086;28;20465;-87
2023/05/05 07:10:51;;;;;;;18.95;10.25;;;;;;;17.27;61.90;100030.34;4935217;28;20123;-87
2023/05/05 07:13:18;;;;;;;19.92;10.23;;;;;;;17.30;62.44;100024.59;4909759;28;20674;-88
2023/05/05 07:15:45;;;;;;;16.02;9.80;;;;;;;17.38;62.78;100034.47;4922430;28;20305;-88
2023/05/05 07:18:13;;;;;;;20.77;10.23;;;;;;;17.43;62.69;100034.78;4933441;28;20044;-87
2023/05/05 07:20:40;;;;;;;18.73;10.13;;;;;;;17.47;62.72;100039.63;4906800;28;20043;-87
2023/05/05 07:23:07;;;;;;;18.98;10.80;;;;;;;17.57;62.96;100036.72;4920582;28;20279;-88
2023/05/05 07:25:33;;;;;;;21.38;9.80;;;;;;;17.61;63.03;100035.38;4903977;28;20055;-87
2023/05/05 07:28:00;;;;;;;17.17;9.70;;;;;;;17.65;63.32;100035.84;4915926;28;20055;-88
2023/05/05 07:30:27;;;;;;;19.23;10.05;;;;;;;17.70;63.57;100036.16;4936372;28;20055;-88
2023/05/05 07:32:55;;;;;;;17.20;9.85;;;;;;;17.73;63.48;100033.09;4917505;28;20055;-88
2023/05/05 07:35:22;;;;;;;20.80;10.20;;;;;;;17.76;63.99;100038.16;4931551;28;20063;-87
2023/05/05 07:37:50;;;;;;;19.42;10.60;;;;;;;17.79;64.15;100035.09;4904919;28;20473;-88
2023/05/05 07:40:16;;;;;;;17.73;10.15;;;;;;;17.88;65.05;100030.53;4917323;28;20048;-87
2023/05/05 07:42:44;;;;;;;18.58;9.50;;;;;;;17.88;64.86;100028.69;4872762;28;20406;-88
2023/05/05 07:45:11;;;;;;;20.23;10.38;;;;;;;17.92;65.07;100040.75;4917456;28;20115;-87
2023/05/05 07:47:39;;;;;;;17.75;10.18;;;;;;;17.93;65.43;100031.66;4887400;28;20058;-88
2023/05/05 07:50:07;;;;;;;18.00;8.70;;;;;;;17.96;65.60;100034.03;4917624;28;20079;-88
2023/05/05 07:52:34;;;;;;;14.18;9.38;;;;;;;18.03;66.44;100039.50;4918589;28;20130;-88
2023/05/05 07:55:15;;;;;;;21.40;9.15;;;;;;;18.05;66.71;100024.03;4918447;28;20054;-88
2023/05/05 07:57:46;;;;;;;18.25;9.20;;;;;;;18.09;66.32;100025.34;4923378;28;20072;-88
2023/05/05 08:00:18;;;;;;;14.15;8.27;;;;;;;18.13;66.27;100029.34;4911384;28;20464;-88
2023/05/05 08:02:46;;;;;;;14.60;8.13;;;;;;;18.17;66.66;100027.16;4921769;28;20051;-88
2023/05/05 08:05:17;;;;;;;14.90;8.52;;;;;;;18.28;67.03;100020.50;4921030;28;20055;-88
2023/05/05 08:07:47;;;;;;;12.52;7.28;;;;;;;18.33;67.05;100021.63;4928171;28;20055;-88
2023/05/05 08:10:17;;;;;;;17.05;8.80;;;;;;;18.38;67.29;100013.00;4904989;28;20512;-88
2023/05/05 08:12:45;;;;;;;16.42;8.07;;;;;;;18.36;66.77;100006.97;4924631;28;20461;-88
2023/05/05 08:15:12;;;;;;;14.27;8.30;;;;;;;18.38;66.77;100013.00;4907380;28;20126;-87
2023/05/05 08:17:46;;;;;;;18.73;7.95;;;;;;;18.41;67.20;100008.09;4939284;28;20048;-89
2023/05/05 08:20:14;;;;;;;16.67;8.50;;;;;;;18.56;67.95;100004.59;4939782;28;20068;-88
2023/05/05 08:22:41;;;;;;;12.85;8.13;;;;;;;18.60;68.18;100011.31;4922825;28;20489;-88
2023/05/05 08:25:11;;;;;;;13.23;8.38;;;;;;;18.66;68.56;100006.00;4909577;28;20102;-88
2023/05/05 08:27:40;;;;;;;17.88;8.95;;;;;;;18.72;67.51;100015.19;4938108;28;20068;-88
2023/05/05 08:30:07;;;;;;;13.38;7.70;;;;;;;18.73;67.39;100006.13;4922223;28;20263;-87
2023/05/05 08:32:35;;;;;;;14.70;7.03;;;;;;;18.75;67.52;100008.59;4935945;28;20146;-87
2023/05/05 08:35:05;;;;;;;13.40;7.57;;;;;;;18.77;67.53;100007.44;4921447;28;20450;-88
2023/05/05 08:37:33;;;;;;;13.45;6.93;;;;;;;18.79;67.35;100007.25;4925136;28;20067;-88
2023/05/05 08:39:59;;;;;;;15.15;7.43;;;;;;;18.78;67.67;100002.91;4896014;28;20051;-87
2023/05/05 08:42:28;;;;;;;17.42;7.70;;;;;;;18.76;67.60;99997.69;4905216;28;20725;-88
2023/05/05 08:45:07;;;;;;;14.95;7.40;;;;;;;18.82;67.15;100005.03;4895402;28;20047;-88
2023/05/05 08:47:41;;;;;;;15.88;7.53;;;;;;;18.88;68.05;99992.69;4889597;28;20047;-88
2023/05/05 08:50:15;;;;;;;13.18;6.80;;;;;;;18.93;67.62;100001.06;4858534;28;20465;-87
2023/05/05 08:53:00;;;;;;;15.20;7.55;;;;;;;18.95;67.33;99998.16;4877632;28;20129;-88
2023/05/05 08:55:33;;;;;;;10.38;6.95;;;;;;;19.03;67.10;99998.91;4903098;28;20059;-88
2023/05/05 08:58:03;;;;;;;13.77;7.65;;;;;;;19.13;67.60;100008.53;4919658;28;20047;-87
2023/05/05 09:00:31;;;;;;;13.15;6.63;;;;;;;19.16;67.09;99997.38;4871656;29;20182;-88
2023/05/05 09:03:06;;;;;;;10.95;6.18;;;;;;;19.24;66.11;100005.38;4829270;28;20059;-87
2023/05/05 09:05:51;;;;;;;13.57;6.97;;;;;;;19.29;66.19;100011.03;4858322;29;20048;-88
2023/05/05 09:08:23;;;;;;;10.23;5.57;;;;;;;19.25;65.63;100001.66;4884437;28;20529;-89
2023/05/05 09:10:53;;;;;;;14.18;6.40;;;;;;;19.33;65.63;100011.50;4917595;28;20157;-88
2023/05/05 09:13:25;;;;;;;15.88;6.80;;;;;;;19.32;65.56;100010.66;4912972;28;20083;-88
2023/05/05 09:16:08;;;;;;;10.93;6.63;;;;;;;19.35;65.80;100009.44;4883456;29;20063;-88
2023/05/05 09:18:48;;;;;;;10.93;5.97;;;;;;;19.40;66.21;99994.38;4770527;28;20171;-88
2023/05/05 09:21:24;;;;;;;16.48;6.70;;;;;;;19.54;65.69;100019.63;4865365;29;20082;-88
2023/05/05 09:24:10;;;;;;;9.82;5.65;;;;;;;19.48;65.12;100012.28;4890455;28;20052;-88
2023/05/05 09:26:43;;;;;;;12.23;5.70;;;;;;;19.50;64.60;100011.06;4900667;28;20531;-88
2023/05/05 09:29:28;;;;;;;10.57;6.30;;;;;;;19.46;64.67;100011.66;4915346;28;20137;-88
2023/05/05 09:32:09;;;;;;;11.32;5.80;;;;;;;19.54;64.41;100003.47;4871591;28;20535;-88
2023/05/05 09:34:43;;;;;;;13.15;6.80;;;;;;;19.57;64.51;100008.47;4905428;28;20119;-88
2023/05/05 09:37:28;;;;;;;11.57;5.30;;;;;;;19.49;64.24;99995.97;4876141;28;20043;-88
2023/05/05 09:40:00;;;;;;;9.80;5.07;;;;;;;19.57;63.85;100000.41;4907568;28;20130;-88
2023/05/05 09:42:44;;;;;;;14.13;4.47;;;;;;;19.54;62.96;99992.69;4856769;28;20051;-88
2023/05/05 09:45:24;;;;;;;10.23;4.32;;;;;;;19.56;62.71;100001.41;4863223;28;20058;-88
2023/05/05 09:47:57;;;;;;;6.78;3.53;;;;;;;19.57;62.43;99999.56;4902157;29;21490;-87
2023/05/05 09:51:00;;;;;;;7.40;3.85;;;;;;;19.52;61.90;99983.97;4881860;28;21553;-88
2023/05/05 09:53:38;;;;;;;9.48;4.60;;;;;;;19.57;61.92;99997.69;4899016;28;20046;-87
2023/05/05 09:56:09;;;;;;;5.43;3.63;;;;;;;19.61;61.81;99990.06;4851137;29;20065;-87
2023/05/05 09:58:43;;;;;;;6.68;3.83;;;;;;;19.68;61.43;99993.69;4859083;29;20052;-88
2023/05/05 10:01:23;;;;;;;5.50;3.45;;;;;;;19.69;61.11;99998.03;4896371;28;20048;-87
2023/05/05 10:03:51;;;;;;;11.23;3.92;;;;;;;19.72;61.32;99986.91;4906150;28;20054;-87
2023/05/05 10:06:47;;;;;;;10.85;4.22;;;;;;;19.67;60.47;99984.78;4896130;28;20051;-87
2023/05/05 10:09:26;;;;;;;11.80;4.60;;;;;;;19.78;61.15;99988.81;4918169;28;20107;-87
2023/05/05 10:12:09;;;;;;;8.93;4.15;;;;;;;19.80;61.68;99996.72;4808038;29;20061;-86
2023/05/05 10:14:46;;;;;;;8.68;4.30;;;;;;;19.80;61.50;99989.47;4883082;28;20054;-88
2023/05/05 10:17:18;;;;;;;7.88;3.58;;;;;;;19.76;60.32;99993.56;4922426;28;20043;-88
2023/05/05 10:20:00;;;;;;;8.63;3.53;;;;;;;19.79;60.43;99995.03;4888072;28;20063;-88
2023/05/05 10:22:43;;;;;;;5.43;3.05;;;;;;;19.76;59.79;99993.56;4889792;28;20057;-88
2023/05/05 10:25:22;;;;;;;6.60;3.00;;;;;;;19.79;59.89;99995.03;4907134;28;20500;-88
2023/05/05 10:28:01;;;;;;;6.28;3.95;;;;;;;19.75;60.05;99981.13;4864611;29;20409;-87
2023/05/05 10:30:38;;;;;;;8.98;3.95;;;;;;;19.84;60.13;99992.59;4879723;29;20517;-88
2023/05/05 10:33:20;;;;;;;9.40;3.83;;;;;;;19.84;60.30;99993.44;4885160;28;20516;-88
2023/05/05 10:36:00;;;;;;;9.43;3.83;;;;;;;19.88;60.49;99985.81;4915613;28;20470;-88
2023/05/05 10:38:30;;;;;;;8.02;3.42;;;;;;;19.92;60.26;99990.63;4911834;28;21144;-88
2023/05/05 10:41:01;;;;;;;7.75;3.45;;;;;;;19.99;60.13;99993.38;4919474;28;20044;-88
2023/05/05 10:43:35;;;;;;;6.05;4.05;;;;;;;19.97;60.36;99983.81;4848675;29;20079;-88
2023/05/05 10:46:10;;;;;;;13.27;4.78;;;;;;;19.95;61.19;99982.16;4864893;29;20111;-88
2023/05/05 10:48:52;;;;;;;12.45;4.85;;;;;;;19.91;61.27;99980.88;4858517;29;20527;-88
2023/05/05 10:51:33;;;;;;;9.65;4.90;;;;;;;20.00;61.27;99984.28;4862826;29;20138;-88
2023/05/05 10:54:41;;;;;;;11.25;4.45;;;;;;;19.89;61.17;99976.69;4863359;29;20625;-88
2023/05/05 10:57:21;;;;;;;7.55;4.28;;;;;;;19.97;61.57;99973.03;4887567;28;20048;-87
2023/05/05 11:00:11;;;;;;;11.40;4.93;;;;;;;19.97;61.78;99973.03;4862690;28;20100;-88
2023/05/05 11:02:41;;;;;;;13.00;6.47;;;;;;;19.98;61.94;99966.63;4881920;28;20408;-88
2023/05/05 11:05:20;;;;;;;9.43;5.70;;;;;;;20.01;61.96;99971.63;4871386;29;20063;-87
2023/05/05 11:08:25;;;;;;;10.02;5.35;;;;;;;19.95;61.88;99965.16;4878860;28;20051;-88
2023/05/05 11:11:03;;;;;;;8.55;4.80;;;;;;;20.06;61.86;99964.63;4862764;28;20549;-88
2023/05/05 11:13:33;;;;;;;7.22;4.10;;;;;;;20.08;61.83;99965.28;4892210;28;20051;-88
2023/05/05 11:16:04;;;;;;;10.18;4.70;;;;;;;20.12;61.52;99965.69;4808732;29;20129;-88
2023/05/05 11:18:42;;;;;;;8.15;4.35;;;;;;;20.09;61.62;99953.44;4876435;28;20043;-88
2023/05/05 11:21:17;;;;;;;11.60;5.03;;;;;;;20.12;61.64;99950.38;4872890;28;20095;-88
2023/05/05 11:24:01;;;;;;;13.07;6.53;;;;;;;20.19;61.55;99952.28;4900108;28;20449;-88
2023/05/05 11:27:03;;;;;;;6.88;3.95;;;;;;;20.13;62.02;99946.66;4869190;28;20047;-89
2023/05/05 11:30:07;;;;;;;13.20;5.72;;;;;;;20.15;61.66;99936.50;4910676;28;20074;-88
2023/05/05 11:32:41;;;;;;;9.07;4.75;;;;;;;20.34;61.55;99942.22;4844555;28;20051;-88
2023/05/05 11:35:14;;;;;;;8.48;4.82;;;;;;;20.37;61.47;99939.97;4872524;28;20043;-87
2023/05/05 11:37:58;;;;;;;10.68;4.57;;;;;;;20.38;61.18;99933.56;4891707;28;20114;-88
2023/05/05 11:40:31;;;;;;;7.65;4.45;;;;;;;20.35;61.28;99927.72;4869892;28;20154;-88
2023/05/05 11:43:07;;;;;;;13.25;4.72;;;;;;;20.39;60.83;99934.38;4870168;28;20055;-89
2023/05/05 11:46:11;;;;;;;8.48;4.20;;;;;;;20.30;61.15;99927.47;4857839;28;20048;-88
2023/05/05 11:51:57;;;;;;;8.23;4.40;;;;;;;20.33;60.84;99937.88;4913022;28;20035;-89